sensor_id;sensor_type;location;lat;lon;timestamp;P1;durP1;ratioP1;P2;durP2;ratioP2
28926;SDS011;16038;47.692;9.400;2022-10-16T00:01:03;10.27;;;4.72;;
28926;SDS011;16038;47.692;9.400;2022-10-16T00:03:34;7.13;;;3.83;;
28926;SDS011;16038;47.692;9.400;2022-10-16T00:06:00;10.05;;;4.85;;
28926;SDS011;16038;47.692;9.400;2022-10-16T00:08:26;10.20;;;4.43;;
28926;SDS011;16038;47.692;9.400;2022-10-16T00:10:52;12.75;;;6.57;;
28926;SDS011;16038;47.692;9.400;2022-10-16T00:13:23;10.05;;;4.40;;
28926;SDS011;16038;47.692;9.400;2022-10-16T00:15:49;9.40;;;4.18;;
28926;SDS011;16038;47.692;9.400;2022-10-16T00:18:14;10.18;;;4.30;;
28926;SDS011;16038;47.692;9.400;2022-10-16T00:20:40;11.18;;;4.88;;
28926;SDS011;16038;47.692;9.400;2022-10-16T00:23:05;10.65;;;4.15;;
28926;SDS011;16038;47.692;9.400;2022-10-16T00:25:31;9.05;;;4.65;;
28926;SDS011;16038;47.692;9.400;2022-10-16T00:30:26;8.20;;;3.88;;
28926;SDS011;16038;47.692;9.400;2022-10-16T00:32:53;6.95;;;4.28;;
28926;SDS011;16038;47.692;9.400;2022-10-16T00:35:18;7.20;;;4.05;;
28926;SDS011;16038;47.692;9.400;2022-10-16T00:37:44;10.48;;;3.88;;
28926;SDS011;16038;47.692;9.400;2022-10-16T00:40:09;11.45;;;4.53;;
28926;SDS011;16038;47.692;9.400;2022-10-16T00:42:35;7.03;;;3.28;;
28926;SDS011;16038;47.692;9.400;2022-10-16T00:45:01;7.22;;;3.47;;
28926;SDS011;16038;47.692;9.400;2022-10-16T00:50:02;4.70;;;3.05;;
28926;SDS011;16038;47.692;9.400;2022-10-16T00:52:39;10.10;;;3.83;;
28926;SDS011;16038;47.692;9.400;2022-10-16T00:55:09;9.82;;;3.75;;
28926;SDS011;16038;47.692;9.400;2022-10-16T00:57:35;6.20;;;3.35;;
28926;SDS011;16038;47.692;9.400;2022-10-16T01:00:03;5.60;;;3.00;;
28926;SDS011;16038;47.692;9.400;2022-10-16T01:02:32;6.03;;;3.30;;
28926;SDS011;16038;47.692;9.400;2022-10-16T01:04:57;12.98;;;3.00;;
28926;SDS011;16038;47.692;9.400;2022-10-16T01:10:37;7.90;;;3.42;;
28926;SDS011;16038;47.692;9.400;2022-10-16T01:21:05;9.05;;;3.60;;
28926;SDS011;16038;47.692;9.400;2022-10-16T01:29:29;6.43;;;3.50;;
28926;SDS011;16038;47.692;9.400;2022-10-16T01:32:08;13.77;;;3.35;;
28926;SDS011;16038;47.692;9.400;2022-10-16T01:34:46;12.55;;;3.53;;
28926;SDS011;16038;47.692;9.400;2022-10-16T01:37:18;8.80;;;3.38;;
28926;SDS011;16038;47.692;9.400;2022-10-16T01:39:52;9.02;;;3.40;;
28926;SDS011;16038;47.692;9.400;2022-10-16T01:42:24;11.68;;;3.53;;
28926;SDS011;16038;47.692;9.400;2022-10-16T01:45:04;13.15;;;3.83;;
28926;SDS011;16038;47.692;9.400;2022-10-16T01:47:32;13.98;;;3.63;;
28926;SDS011;16038;47.692;9.400;2022-10-16T01:50:00;9.63;;;3.40;;
28926;SDS011;16038;47.692;9.400;2022-10-16T01:52:30;13.10;;;4.05;;
28926;SDS011;16038;47.692;9.400;2022-10-16T01:55:00;7.43;;;3.47;;
28926;SDS011;16038;47.692;9.400;2022-10-16T01:57:29;7.63;;;3.33;;
28926;SDS011;16038;47.692;9.400;2022-10-16T01:59:57;6.70;;;3.25;;
28926;SDS011;16038;47.692;9.400;2022-10-16T02:02:26;9.95;;;3.80;;
28926;SDS011;16038;47.692;9.400;2022-10-16T02:05:02;11.68;;;3.20;;
28926;SDS011;16038;47.692;9.400;2022-10-16T02:07:36;12.18;;;3.28;;
28926;SDS011;16038;47.692;9.400;2022-10-16T02:10:02;18.63;;;3.90;;
28926;SDS011;16038;47.692;9.400;2022-10-16T02:12:28;7.05;;;3.10;;
28926;SDS011;16038;47.692;9.400;2022-10-16T02:14:58;22.27;;;3.13;;
28926;SDS011;16038;47.692;9.400;2022-10-16T02:17:24;7.03;;;2.90;;
28926;SDS011;16038;47.692;9.400;2022-10-16T02:19:50;13.57;;;4.07;;
28926;SDS011;16038;47.692;9.400;2022-10-16T02:23:04;7.35;;;3.45;;
28926;SDS011;16038;47.692;9.400;2022-10-16T02:25:29;9.70;;;2.95;;
28926;SDS011;16038;47.692;9.400;2022-10-16T02:28:05;10.02;;;2.83;;
28926;SDS011;16038;47.692;9.400;2022-10-16T02:30:50;10.45;;;2.60;;
28926;SDS011;16038;47.692;9.400;2022-10-16T02:33:19;18.88;;;3.30;;
28926;SDS011;16038;47.692;9.400;2022-10-16T02:35:47;8.98;;;2.97;;
28926;SDS011;16038;47.692;9.400;2022-10-16T02:38:16;6.25;;;3.22;;
28926;SDS011;16038;47.692;9.400;2022-10-16T02:40:43;7.15;;;2.85;;
28926;SDS011;16038;47.692;9.400;2022-10-16T02:43:09;6.18;;;2.80;;
28926;SDS011;16038;47.692;9.400;2022-10-16T02:45:35;7.72;;;3.00;;
28926;SDS011;16038;47.692;9.400;2022-10-16T02:48:00;7.93;;;2.50;;
28926;SDS011;16038;47.692;9.400;2022-10-16T02:50:26;5.70;;;3.38;;
28926;SDS011;16038;47.692;9.400;2022-10-16T02:52:52;4.88;;;3.45;;
28926;SDS011;16038;47.692;9.400;2022-10-16T02:55:17;10.13;;;3.25;;
28926;SDS011;16038;47.692;9.400;2022-10-16T02:57:43;7.40;;;3.40;;
28926;SDS011;16038;47.692;9.400;2022-10-16T03:00:09;6.93;;;2.88;;
28926;SDS011;16038;47.692;9.400;2022-10-16T03:02:38;8.40;;;3.42;;
28926;SDS011;16038;47.692;9.400;2022-10-16T03:05:03;8.65;;;2.60;;
28926;SDS011;16038;47.692;9.400;2022-10-16T03:07:29;9.55;;;3.03;;
28926;SDS011;16038;47.692;9.400;2022-10-16T03:09:55;6.60;;;3.00;;
28926;SDS011;16038;47.692;9.400;2022-10-16T03:12:21;5.40;;;2.75;;
28926;SDS011;16038;47.692;9.400;2022-10-16T03:14:47;10.32;;;3.58;;
28926;SDS011;16038;47.692;9.400;2022-10-16T03:17:13;12.75;;;2.80;;
28926;SDS011;16038;47.692;9.400;2022-10-16T03:19:38;10.00;;;3.45;;
28926;SDS011;16038;47.692;9.400;2022-10-16T03:22:04;8.02;;;2.90;;
28926;SDS011;16038;47.692;9.400;2022-10-16T03:24:30;9.30;;;2.85;;
28926;SDS011;16038;47.692;9.400;2022-10-16T03:26:56;12.27;;;2.90;;
28926;SDS011;16038;47.692;9.400;2022-10-16T03:29:22;10.18;;;3.55;;
28926;SDS011;16038;47.692;9.400;2022-10-16T03:31:47;10.02;;;3.58;;
28926;SDS011;16038;47.692;9.400;2022-10-16T03:34:14;9.40;;;3.50;;
28926;SDS011;16038;47.692;9.400;2022-10-16T03:36:40;17.25;;;3.60;;
28926;SDS011;16038;47.692;9.400;2022-10-16T03:39:05;8.75;;;3.95;;
28926;SDS011;16038;47.692;9.400;2022-10-16T03:41:31;9.73;;;3.65;;
28926;SDS011;16038;47.692;9.400;2022-10-16T03:43:56;12.75;;;3.65;;
28926;SDS011;16038;47.692;9.400;2022-10-16T03:46:22;11.43;;;3.35;;
28926;SDS011;16038;47.692;9.400;2022-10-16T03:48:47;8.52;;;3.05;;
28926;SDS011;16038;47.692;9.400;2022-10-16T03:51:13;11.55;;;3.70;;
28926;SDS011;16038;47.692;9.400;2022-10-16T03:53:38;6.47;;;2.92;;
28926;SDS011;16038;47.692;9.400;2022-10-16T03:56:04;6.53;;;3.28;;
28926;SDS011;16038;47.692;9.400;2022-10-16T03:58:30;4.97;;;3.30;;
28926;SDS011;16038;47.692;9.400;2022-10-16T04:00:55;11.90;;;3.22;;
28926;SDS011;16038;47.692;9.400;2022-10-16T04:03:21;5.47;;;3.25;;
28926;SDS011;16038;47.692;9.400;2022-10-16T04:05:48;8.98;;;3.03;;
28926;SDS011;16038;47.692;9.400;2022-10-16T04:08:13;11.43;;;3.58;;
28926;SDS011;16038;47.692;9.400;2022-10-16T04:10:39;20.48;;;6.95;;
28926;SDS011;16038;47.692;9.400;2022-10-16T04:13:05;9.15;;;3.97;;
28926;SDS011;16038;47.692;9.400;2022-10-16T04:15:30;12.02;;;2.88;;
28926;SDS011;16038;47.692;9.400;2022-10-16T04:17:56;13.10;;;3.90;;
28926;SDS011;16038;47.692;9.400;2022-10-16T04:20:21;13.18;;;4.20;;
28926;SDS011;16038;47.692;9.400;2022-10-16T04:22:47;6.60;;;3.50;;
28926;SDS011;16038;47.692;9.400;2022-10-16T04:25:12;11.50;;;4.45;;
28926;SDS011;16038;47.692;9.400;2022-10-16T04:27:38;14.73;;;3.10;;
28926;SDS011;16038;47.692;9.400;2022-10-16T04:30:04;4.00;;;2.80;;
28926;SDS011;16038;47.692;9.400;2022-10-16T04:32:30;18.85;;;3.95;;
28926;SDS011;16038;47.692;9.400;2022-10-16T04:34:56;6.57;;;3.42;;
28926;SDS011;16038;47.692;9.400;2022-10-16T04:37:25;10.10;;;3.35;;
28926;SDS011;16038;47.692;9.400;2022-10-16T04:39:51;18.00;;;3.80;;
28926;SDS011;16038;47.692;9.400;2022-10-16T04:42:18;11.02;;;3.35;;
28926;SDS011;16038;47.692;9.400;2022-10-16T04:44:44;8.15;;;3.38;;
28926;SDS011;16038;47.692;9.400;2022-10-16T04:47:10;9.00;;;3.30;;
28926;SDS011;16038;47.692;9.400;2022-10-16T04:49:35;12.63;;;3.45;;
28926;SDS011;16038;47.692;9.400;2022-10-16T04:52:01;6.93;;;3.08;;
28926;SDS011;16038;47.692;9.400;2022-10-16T04:54:27;5.72;;;2.95;;
28926;SDS011;16038;47.692;9.400;2022-10-16T04:56:52;9.88;;;2.97;;
28926;SDS011;16038;47.692;9.400;2022-10-16T04:59:18;4.72;;;2.55;;
28926;SDS011;16038;47.692;9.400;2022-10-16T05:01:44;9.27;;;2.80;;
28926;SDS011;16038;47.692;9.400;2022-10-16T05:04:10;10.15;;;3.08;;
28926;SDS011;16038;47.692;9.400;2022-10-16T05:06:37;6.60;;;3.28;;
28926;SDS011;16038;47.692;9.400;2022-10-16T05:09:04;8.52;;;3.38;;
28926;SDS011;16038;47.692;9.400;2022-10-16T05:11:31;11.85;;;3.38;;
28926;SDS011;16038;47.692;9.400;2022-10-16T05:13:56;6.15;;;3.00;;
28926;SDS011;16038;47.692;9.400;2022-10-16T05:16:22;8.75;;;3.15;;
28926;SDS011;16038;47.692;9.400;2022-10-16T05:18:47;7.97;;;3.15;;
28926;SDS011;16038;47.692;9.400;2022-10-16T05:21:13;7.32;;;3.28;;
28926;SDS011;16038;47.692;9.400;2022-10-16T05:23:38;8.07;;;2.78;;
28926;SDS011;16038;47.692;9.400;2022-10-16T05:26:04;9.38;;;3.55;;
28926;SDS011;16038;47.692;9.400;2022-10-16T05:28:30;8.32;;;3.03;;
28926;SDS011;16038;47.692;9.400;2022-10-16T05:30:55;13.88;;;3.03;;
28926;SDS011;16038;47.692;9.400;2022-10-16T05:33:23;7.32;;;3.42;;
28926;SDS011;16038;47.692;9.400;2022-10-16T05:35:49;10.20;;;3.33;;
28926;SDS011;16038;47.692;9.400;2022-10-16T05:38:16;8.88;;;3.42;;
28926;SDS011;16038;47.692;9.400;2022-10-16T05:40:42;8.68;;;3.22;;
28926;SDS011;16038;47.692;9.400;2022-10-16T05:43:08;10.32;;;3.47;;
28926;SDS011;16038;47.692;9.400;2022-10-16T05:45:34;15.80;;;3.45;;
28926;SDS011;16038;47.692;9.400;2022-10-16T05:47:59;7.65;;;3.92;;
28926;SDS011;16038;47.692;9.400;2022-10-16T05:50:25;8.52;;;4.03;;
28926;SDS011;16038;47.692;9.400;2022-10-16T05:52:51;7.75;;;4.30;;
28926;SDS011;16038;47.692;9.400;2022-10-16T05:55:17;12.48;;;4.35;;
28926;SDS011;16038;47.692;9.400;2022-10-16T05:57:42;8.93;;;4.35;;
28926;SDS011;16038;47.692;9.400;2022-10-16T06:00:08;10.43;;;6.00;;
28926;SDS011;16038;47.692;9.400;2022-10-16T06:02:34;7.00;;;4.13;;
28926;SDS011;16038;47.692;9.400;2022-10-16T06:04:59;8.60;;;4.15;;
28926;SDS011;16038;47.692;9.400;2022-10-16T06:07:25;9.07;;;3.75;;
28926;SDS011;16038;47.692;9.400;2022-10-16T06:09:51;8.30;;;3.72;;
28926;SDS011;16038;47.692;9.400;2022-10-16T06:12:17;8.00;;;4.20;;
28926;SDS011;16038;47.692;9.400;2022-10-16T06:14:44;7.10;;;2.95;;
28926;SDS011;16038;47.692;9.400;2022-10-16T06:17:12;9.07;;;3.15;;
28926;SDS011;16038;47.692;9.400;2022-10-16T06:19:39;7.60;;;2.88;;
28926;SDS011;16038;47.692;9.400;2022-10-16T06:22:04;8.18;;;3.13;;
28926;SDS011;16038;47.692;9.400;2022-10-16T06:24:30;9.40;;;3.80;;
28926;SDS011;16038;47.692;9.400;2022-10-16T06:26:55;9.35;;;2.88;;
28926;SDS011;16038;47.692;9.400;2022-10-16T06:29:21;11.45;;;3.25;;
28926;SDS011;16038;47.692;9.400;2022-10-16T06:31:46;6.60;;;2.35;;
28926;SDS011;16038;47.692;9.400;2022-10-16T06:34:12;4.53;;;2.70;;
28926;SDS011;16038;47.692;9.400;2022-10-16T06:36:38;7.20;;;2.03;;
28926;SDS011;16038;47.692;9.400;2022-10-16T06:39:04;8.63;;;1.95;;
28926;SDS011;16038;47.692;9.400;2022-10-16T06:41:32;7.03;;;1.98;;
28926;SDS011;16038;47.692;9.400;2022-10-16T06:43:59;5.43;;;1.90;;
28926;SDS011;16038;47.692;9.400;2022-10-16T06:46:24;5.45;;;1.38;;
28926;SDS011;16038;47.692;9.400;2022-10-16T06:48:52;4.88;;;1.70;;
28926;SDS011;16038;47.692;9.400;2022-10-16T06:51:22;2.53;;;1.48;;
28926;SDS011;16038;47.692;9.400;2022-10-16T06:53:50;6.20;;;1.98;;
28926;SDS011;16038;47.692;9.400;2022-10-16T06:56:18;10.30;;;2.30;;
28926;SDS011;16038;47.692;9.400;2022-10-16T06:58:45;9.30;;;2.30;;
28926;SDS011;16038;47.692;9.400;2022-10-16T07:01:12;4.85;;;2.78;;
28926;SDS011;16038;47.692;9.400;2022-10-16T07:03:39;8.63;;;2.63;;
28926;SDS011;16038;47.692;9.400;2022-10-16T07:06:07;7.85;;;2.13;;
28926;SDS011;16038;47.692;9.400;2022-10-16T07:08:35;3.72;;;2.40;;
28926;SDS011;16038;47.692;9.400;2022-10-16T07:11:03;9.95;;;3.50;;
28926;SDS011;16038;47.692;9.400;2022-10-16T07:13:34;8.77;;;3.58;;
28926;SDS011;16038;47.692;9.400;2022-10-16T07:16:04;8.98;;;3.50;;
28926;SDS011;16038;47.692;9.400;2022-10-16T07:18:31;9.50;;;3.47;;
28926;SDS011;16038;47.692;9.400;2022-10-16T07:21:07;8.80;;;3.80;;
28926;SDS011;16038;47.692;9.400;2022-10-16T07:23:35;8.18;;;2.47;;
28926;SDS011;16038;47.692;9.400;2022-10-16T07:26:01;7.15;;;2.53;;
28926;SDS011;16038;47.692;9.400;2022-10-16T07:28:27;6.03;;;2.80;;
28926;SDS011;16038;47.692;9.400;2022-10-16T07:30:54;7.20;;;2.88;;
28926;SDS011;16038;47.692;9.400;2022-10-16T07:33:20;8.55;;;2.63;;
28926;SDS011;16038;47.692;9.400;2022-10-16T07:35:52;7.97;;;2.85;;
28926;SDS011;16038;47.692;9.400;2022-10-16T07:38:19;4.53;;;2.72;;
28926;SDS011;16038;47.692;9.400;2022-10-16T07:40:46;8.63;;;2.20;;
28926;SDS011;16038;47.692;9.400;2022-10-16T07:43:12;5.88;;;2.65;;
28926;SDS011;16038;47.692;9.400;2022-10-16T07:45:46;5.57;;;2.40;;
28926;SDS011;16038;47.692;9.400;2022-10-16T07:48:13;9.57;;;3.47;;
28926;SDS011;16038;47.692;9.400;2022-10-16T07:50:39;4.95;;;3.00;;
28926;SDS011;16038;47.692;9.400;2022-10-16T07:53:04;12.80;;;2.88;;
28926;SDS011;16038;47.692;9.400;2022-10-16T07:55:29;18.60;;;4.20;;
28926;SDS011;16038;47.692;9.400;2022-10-16T07:57:55;6.80;;;2.67;;
28926;SDS011;16038;47.692;9.400;2022-10-16T08:00:20;9.77;;;2.70;;
28926;SDS011;16038;47.692;9.400;2022-10-16T08:02:46;8.00;;;2.80;;
28926;SDS011;16038;47.692;9.400;2022-10-16T08:05:11;7.50;;;3.25;;
28926;SDS011;16038;47.692;9.400;2022-10-16T08:07:37;4.65;;;2.70;;
28926;SDS011;16038;47.692;9.400;2022-10-16T08:10:03;13.93;;;4.35;;
28926;SDS011;16038;47.692;9.400;2022-10-16T08:12:29;9.00;;;3.22;;
28926;SDS011;16038;47.692;9.400;2022-10-16T08:14:55;9.73;;;3.22;;
28926;SDS011;16038;47.692;9.400;2022-10-16T08:17:20;6.10;;;3.03;;
28926;SDS011;16038;47.692;9.400;2022-10-16T08:19:46;5.28;;;3.00;;
28926;SDS011;16038;47.692;9.400;2022-10-16T08:22:13;4.18;;;2.30;;
28926;SDS011;16038;47.692;9.400;2022-10-16T08:24:39;6.43;;;2.15;;
28926;SDS011;16038;47.692;9.400;2022-10-16T08:27:05;4.97;;;2.25;;
28926;SDS011;16038;47.692;9.400;2022-10-16T08:29:31;6.72;;;3.85;;
28926;SDS011;16038;47.692;9.400;2022-10-16T08:31:56;3.67;;;2.20;;
28926;SDS011;16038;47.692;9.400;2022-10-16T08:34:22;4.95;;;2.17;;
28926;SDS011;16038;47.692;9.400;2022-10-16T08:36:47;4.20;;;2.63;;
28926;SDS011;16038;47.692;9.400;2022-10-16T08:39:12;6.15;;;2.45;;
28926;SDS011;16038;47.692;9.400;2022-10-16T08:47:56;8.45;;;2.75;;
28926;SDS011;16038;47.692;9.400;2022-10-16T08:50:35;4.07;;;1.70;;
28926;SDS011;16038;47.692;9.400;2022-10-16T08:53:04;10.40;;;2.08;;
28926;SDS011;16038;47.692;9.400;2022-10-16T08:55:38;3.15;;;1.90;;
28926;SDS011;16038;47.692;9.400;2022-10-16T08:58:11;8.73;;;2.10;;
28926;SDS011;16038;47.692;9.400;2022-10-16T09:00:43;4.30;;;1.52;;
28926;SDS011;16038;47.692;9.400;2022-10-16T09:14:32;4.03;;;1.70;;
28926;SDS011;16038;47.692;9.400;2022-10-16T09:20:11;7.43;;;1.38;;
28926;SDS011;16038;47.692;9.400;2022-10-16T09:22:43;5.88;;;1.75;;
28926;SDS011;16038;47.692;9.400;2022-10-16T09:25:13;6.85;;;1.60;;
28926;SDS011;16038;47.692;9.400;2022-10-16T09:27:47;5.32;;;1.52;;
28926;SDS011;16038;47.692;9.400;2022-10-16T09:30:15;4.05;;;1.60;;
28926;SDS011;16038;47.692;9.400;2022-10-16T09:32:43;3.33;;;1.80;;
28926;SDS011;16038;47.692;9.400;2022-10-16T09:35:16;3.90;;;1.77;;
28926;SDS011;16038;47.692;9.400;2022-10-16T09:37:45;4.22;;;2.40;;
28926;SDS011;16038;47.692;9.400;2022-10-16T09:40:36;6.72;;;2.08;;
28926;SDS011;16038;47.692;9.400;2022-10-16T09:45:38;13.98;;;3.60;;
28926;SDS011;16038;47.692;9.400;2022-10-16T09:48:10;3.33;;;1.42;;
28926;SDS011;16038;47.692;9.400;2022-10-16T09:50:37;7.10;;;1.80;;
28926;SDS011;16038;47.692;9.400;2022-10-16T09:53:04;6.03;;;1.42;;
28926;SDS011;16038;47.692;9.400;2022-10-16T09:55:36;7.40;;;2.92;;
28926;SDS011;16038;47.692;9.400;2022-10-16T09:58:01;6.55;;;2.20;;
28926;SDS011;16038;47.692;9.400;2022-10-16T10:00:27;9.88;;;1.50;;
28926;SDS011;16038;47.692;9.400;2022-10-16T10:02:53;4.72;;;1.38;;
28926;SDS011;16038;47.692;9.400;2022-10-16T10:05:23;1.98;;;1.30;;
28926;SDS011;16038;47.692;9.400;2022-10-16T10:08:12;4.90;;;1.45;;
28926;SDS011;16038;47.692;9.400;2022-10-16T10:10:41;3.17;;;1.30;;
28926;SDS011;16038;47.692;9.400;2022-10-16T10:13:20;4.55;;;1.13;;
28926;SDS011;16038;47.692;9.400;2022-10-16T10:15:47;2.92;;;1.30;;
28926;SDS011;16038;47.692;9.400;2022-10-16T10:18:18;3.67;;;1.10;;
28926;SDS011;16038;47.692;9.400;2022-10-16T10:20:45;4.05;;;1.10;;
28926;SDS011;16038;47.692;9.400;2022-10-16T10:23:21;8.85;;;1.45;;
28926;SDS011;16038;47.692;9.400;2022-10-16T10:25:53;4.35;;;1.08;;
28926;SDS011;16038;47.692;9.400;2022-10-16T10:36:41;3.22;;;1.08;;
28926;SDS011;16038;47.692;9.400;2022-10-16T10:44:50;5.35;;;1.63;;
28926;SDS011;16038;47.692;9.400;2022-10-16T10:50:12;5.63;;;1.60;;
28926;SDS011;16038;47.692;9.400;2022-10-16T10:57:43;2.45;;;0.90;;
28926;SDS011;16038;47.692;9.400;2022-10-16T11:00:21;4.15;;;1.15;;
28926;SDS011;16038;47.692;9.400;2022-10-16T11:05:31;7.88;;;2.08;;
28926;SDS011;16038;47.692;9.400;2022-10-16T11:08:07;7.45;;;1.30;;
28926;SDS011;16038;47.692;9.400;2022-10-16T11:18:50;7.25;;;1.25;;
28926;SDS011;16038;47.692;9.400;2022-10-16T11:21:21;2.08;;;0.80;;
28926;SDS011;16038;47.692;9.400;2022-10-16T11:24:12;10.85;;;1.30;;
28926;SDS011;16038;47.692;9.400;2022-10-16T11:26:44;4.97;;;1.05;;
28926;SDS011;16038;47.692;9.400;2022-10-16T11:29:15;2.63;;;0.90;;
28926;SDS011;16038;47.692;9.400;2022-10-16T11:31:52;2.72;;;0.63;;
28926;SDS011;16038;47.692;9.400;2022-10-16T11:34:32;3.05;;;0.90;;
28926;SDS011;16038;47.692;9.400;2022-10-16T11:37:07;3.67;;;1.00;;
28926;SDS011;16038;47.692;9.400;2022-10-16T11:39:38;2.88;;;0.70;;
28926;SDS011;16038;47.692;9.400;2022-10-16T11:42:07;3.55;;;0.90;;
28926;SDS011;16038;47.692;9.400;2022-10-16T11:50:09;2.00;;;0.80;;
28926;SDS011;16038;47.692;9.400;2022-10-16T11:55:41;11.23;;;1.08;;
28926;SDS011;16038;47.692;9.400;2022-10-16T12:01:02;7.82;;;1.00;;
28926;SDS011;16038;47.692;9.400;2022-10-16T12:03:42;2.58;;;0.73;;
28926;SDS011;16038;47.692;9.400;2022-10-16T12:08:46;2.92;;;0.95;;
28926;SDS011;16038;47.692;9.400;2022-10-16T12:14:06;5.07;;;1.38;;
28926;SDS011;16038;47.692;9.400;2022-10-16T12:16:38;4.32;;;1.63;;
28926;SDS011;16038;47.692;9.400;2022-10-16T12:19:16;5.85;;;1.40;;
28926;SDS011;16038;47.692;9.400;2022-10-16T12:21:43;6.68;;;2.65;;
28926;SDS011;16038;47.692;9.400;2022-10-16T12:26:56;6.68;;;2.55;;
28926;SDS011;16038;47.692;9.400;2022-10-16T12:29:25;12.25;;;2.08;;
28926;SDS011;16038;47.692;9.400;2022-10-16T12:31:56;5.28;;;2.05;;
28926;SDS011;16038;47.692;9.400;2022-10-16T12:34:23;6.07;;;2.95;;
28926;SDS011;16038;47.692;9.400;2022-10-16T12:36:54;6.75;;;2.88;;
28926;SDS011;16038;47.692;9.400;2022-10-16T12:39:22;3.88;;;1.92;;
28926;SDS011;16038;47.692;9.400;2022-10-16T12:42:03;7.13;;;2.07;;
28926;SDS011;16038;47.692;9.400;2022-10-16T12:44:34;5.47;;;2.40;;
28926;SDS011;16038;47.692;9.400;2022-10-16T12:47:00;9.82;;;2.80;;
28926;SDS011;16038;47.692;9.400;2022-10-16T12:49:30;10.77;;;3.33;;
28926;SDS011;16038;47.692;9.400;2022-10-16T12:52:00;7.07;;;2.70;;
28926;SDS011;16038;47.692;9.400;2022-10-16T12:54:30;10.18;;;3.03;;
28926;SDS011;16038;47.692;9.400;2022-10-16T13:13:49;4.10;;;2.60;;
28926;SDS011;16038;47.692;9.400;2022-10-16T13:19:27;6.03;;;2.33;;
28926;SDS011;16038;47.692;9.400;2022-10-16T13:22:11;4.60;;;2.08;;
28926;SDS011;16038;47.692;9.400;2022-10-16T13:24:49;6.85;;;3.35;;
28926;SDS011;16038;47.692;9.400;2022-10-16T13:27:29;5.68;;;2.30;;
28926;SDS011;16038;47.692;9.400;2022-10-16T13:30:17;4.63;;;2.03;;
28926;SDS011;16038;47.692;9.400;2022-10-16T13:33:30;3.80;;;1.95;;
28926;SDS011;16038;47.692;9.400;2022-10-16T13:35:46;8.02;;;2.70;;
28926;SDS011;16038;47.692;9.400;2022-10-16T13:40:56;5.63;;;2.03;;
28926;SDS011;16038;47.692;9.400;2022-10-16T13:43:27;4.18;;;1.80;;
28926;SDS011;16038;47.692;9.400;2022-10-16T13:45:58;8.00;;;2.50;;
28926;SDS011;16038;47.692;9.400;2022-10-16T13:48:43;6.18;;;2.22;;
28926;SDS011;16038;47.692;9.400;2022-10-16T13:51:16;4.63;;;1.42;;
28926;SDS011;16038;47.692;9.400;2022-10-16T13:53:43;7.28;;;1.70;;
28926;SDS011;16038;47.692;9.400;2022-10-16T13:56:19;6.55;;;1.98;;
28926;SDS011;16038;47.692;9.400;2022-10-16T13:58:57;3.35;;;1.42;;
28926;SDS011;16038;47.692;9.400;2022-10-16T14:01:43;4.45;;;1.70;;
28926;SDS011;16038;47.692;9.400;2022-10-16T14:04:10;5.82;;;1.40;;
28926;SDS011;16038;47.692;9.400;2022-10-16T14:09:14;4.50;;;1.67;;
28926;SDS011;16038;47.692;9.400;2022-10-16T14:11:45;2.20;;;1.40;;
28926;SDS011;16038;47.692;9.400;2022-10-16T14:14:18;7.85;;;2.35;;
28926;SDS011;16038;47.692;9.400;2022-10-16T14:16:44;4.53;;;1.73;;
28926;SDS011;16038;47.692;9.400;2022-10-16T14:19:21;6.70;;;1.45;;
28926;SDS011;16038;47.692;9.400;2022-10-16T14:21:50;3.50;;;1.70;;
28926;SDS011;16038;47.692;9.400;2022-10-16T14:24:35;4.32;;;1.85;;
28926;SDS011;16038;47.692;9.400;2022-10-16T14:27:00;7.35;;;2.30;;
28926;SDS011;16038;47.692;9.400;2022-10-16T14:29:28;4.18;;;1.75;;
28926;SDS011;16038;47.692;9.400;2022-10-16T14:31:57;2.65;;;1.70;;
28926;SDS011;16038;47.692;9.400;2022-10-16T14:34:35;8.10;;;1.90;;
28926;SDS011;16038;47.692;9.400;2022-10-16T14:39:32;3.85;;;1.90;;
28926;SDS011;16038;47.692;9.400;2022-10-16T14:41:58;3.80;;;2.35;;
28926;SDS011;16038;47.692;9.400;2022-10-16T14:44:28;5.30;;;2.35;;
28926;SDS011;16038;47.692;9.400;2022-10-16T14:46:57;8.70;;;2.42;;
28926;SDS011;16038;47.692;9.400;2022-10-16T14:49:24;5.22;;;2.35;;
28926;SDS011;16038;47.692;9.400;2022-10-16T14:51:50;6.88;;;3.40;;
28926;SDS011;16038;47.692;9.400;2022-10-16T14:54:17;6.03;;;3.30;;
28926;SDS011;16038;47.692;9.400;2022-10-16T14:56:56;9.60;;;3.70;;
28926;SDS011;16038;47.692;9.400;2022-10-16T15:02:09;6.18;;;2.58;;
28926;SDS011;16038;47.692;9.400;2022-10-16T15:04:40;3.17;;;2.15;;
28926;SDS011;16038;47.692;9.400;2022-10-16T15:07:07;8.07;;;2.28;;
28926;SDS011;16038;47.692;9.400;2022-10-16T15:09:33;4.22;;;2.05;;
28926;SDS011;16038;47.692;9.400;2022-10-16T15:11:58;6.15;;;1.70;;
28926;SDS011;16038;47.692;9.400;2022-10-16T15:14:23;4.20;;;1.80;;
28926;SDS011;16038;47.692;9.400;2022-10-16T15:16:49;4.07;;;2.33;;
28926;SDS011;16038;47.692;9.400;2022-10-16T15:19:14;2.45;;;1.75;;
28926;SDS011;16038;47.692;9.400;2022-10-16T15:21:40;5.38;;;2.17;;
28926;SDS011;16038;47.692;9.400;2022-10-16T15:24:08;4.45;;;1.80;;
28926;SDS011;16038;47.692;9.400;2022-10-16T15:26:36;4.03;;;1.95;;
28926;SDS011;16038;47.692;9.400;2022-10-16T15:29:01;5.60;;;2.10;;
28926;SDS011;16038;47.692;9.400;2022-10-16T15:31:27;4.07;;;2.08;;
28926;SDS011;16038;47.692;9.400;2022-10-16T15:33:52;3.40;;;1.92;;
28926;SDS011;16038;47.692;9.400;2022-10-16T15:36:27;3.45;;;1.88;;
28926;SDS011;16038;47.692;9.400;2022-10-16T15:38:54;6.07;;;1.98;;
28926;SDS011;16038;47.692;9.400;2022-10-16T15:41:20;4.75;;;2.20;;
28926;SDS011;16038;47.692;9.400;2022-10-16T15:43:47;3.30;;;1.85;;
28926;SDS011;16038;47.692;9.400;2022-10-16T15:46:14;9.15;;;3.50;;
28926;SDS011;16038;47.692;9.400;2022-10-16T15:48:43;14.97;;;2.87;;
28926;SDS011;16038;47.692;9.400;2022-10-16T15:51:09;5.28;;;2.63;;
28926;SDS011;16038;47.692;9.400;2022-10-16T15:53:34;11.95;;;2.72;;
28926;SDS011;16038;47.692;9.400;2022-10-16T15:56:03;5.10;;;2.67;;
28926;SDS011;16038;47.692;9.400;2022-10-16T15:58:30;12.82;;;5.70;;
28926;SDS011;16038;47.692;9.400;2022-10-16T16:00:56;8.85;;;3.40;;
28926;SDS011;16038;47.692;9.400;2022-10-16T16:03:22;4.75;;;2.33;;
28926;SDS011;16038;47.692;9.400;2022-10-16T16:05:48;10.75;;;3.05;;
28926;SDS011;16038;47.692;9.400;2022-10-16T16:08:13;7.47;;;2.75;;
28926;SDS011;16038;47.692;9.400;2022-10-16T16:10:38;3.65;;;2.30;;
28926;SDS011;16038;47.692;9.400;2022-10-16T16:13:04;7.75;;;2.78;;
28926;SDS011;16038;47.692;9.400;2022-10-16T16:15:29;10.57;;;2.92;;
28926;SDS011;16038;47.692;9.400;2022-10-16T16:17:54;8.50;;;3.17;;
28926;SDS011;16038;47.692;9.400;2022-10-16T16:20:20;7.97;;;2.83;;
28926;SDS011;16038;47.692;9.400;2022-10-16T16:22:45;11.43;;;5.95;;
28926;SDS011;16038;47.692;9.400;2022-10-16T16:25:11;6.72;;;3.00;;
28926;SDS011;16038;47.692;9.400;2022-10-16T16:27:36;5.18;;;2.60;;
28926;SDS011;16038;47.692;9.400;2022-10-16T16:30:04;8.35;;;2.75;;
28926;SDS011;16038;47.692;9.400;2022-10-16T16:32:35;7.78;;;2.90;;
28926;SDS011;16038;47.692;9.400;2022-10-16T16:35:00;5.95;;;2.85;;
28926;SDS011;16038;47.692;9.400;2022-10-16T16:37:27;3.80;;;2.88;;
28926;SDS011;16038;47.692;9.400;2022-10-16T16:39:52;6.65;;;2.85;;
28926;SDS011;16038;47.692;9.400;2022-10-16T16:42:20;7.85;;;2.75;;
28926;SDS011;16038;47.692;9.400;2022-10-16T16:44:47;7.40;;;3.00;;
28926;SDS011;16038;47.692;9.400;2022-10-16T16:47:13;6.20;;;2.65;;
28926;SDS011;16038;47.692;9.400;2022-10-16T16:49:38;9.60;;;2.67;;
28926;SDS011;16038;47.692;9.400;2022-10-16T16:52:05;6.63;;;2.60;;
28926;SDS011;16038;47.692;9.400;2022-10-16T16:54:30;9.85;;;2.80;;
28926;SDS011;16038;47.692;9.400;2022-10-16T16:56:56;9.13;;;2.67;;
28926;SDS011;16038;47.692;9.400;2022-10-16T16:59:21;6.13;;;2.60;;
28926;SDS011;16038;47.692;9.400;2022-10-16T17:01:47;5.85;;;2.30;;